Time;durP1;ratioP1;P1;durP2;ratioP2;P2;SDS_P1;SDS_P2;PMS_P1;PMS_P2;Temp;Humidity;BMP_temperature;BMP_pressure;BME280_temperature;BME280_humidity;BME280_pressure;Samples;Min_cycle;Max_cycle;Signal;HPM_P1;HPM_P2
2022/08/27 00:00:14;;;;;;;8.60;7.70;;;24.80;99.90;;;;;;5029669;28;20797;-61
2022/08/27 00:02:42;;;;;;;10.07;9.27;;;24.80;99.90;;;;;;5032148;28;20511;-60
2022/08/27 00:05:11;;;;;;;10.47;9.57;;;24.70;99.90;;;;;;5032408;28;20536;-60
2022/08/27 00:07:39;;;;;;;9.90;9.00;;;24.70;99.90;;;;;;5031803;28;20480;-60
2022/08/27 00:10:08;;;;;;;9.20;8.40;;;24.70;99.90;;;;;;5031985;28;20969;-60
2022/08/27 00:12:36;;;;;;;8.97;8.20;;;24.70;99.90;;;;;;5031885;28;20553;-60
2022/08/27 00:15:03;;;;;;;10.40;9.50;;;24.70;99.90;;;;;;5032108;28;20546;-60
2022/08/27 00:17:30;;;;;;;10.40;8.70;;;24.60;99.90;;;;;;5031760;28;20528;-61
2022/08/27 00:19:57;;;;;;;8.80;8.10;;;24.60;99.90;;;;;;5031805;28;20528;-60
2022/08/27 00:22:25;;;;;;;7.83;7.23;;;24.60;99.90;;;;;;5031855;28;20539;-60
2022/08/27 00:24:52;;;;;;;7.10;6.50;;;24.50;99.90;;;;;;5031884;28;20488;-61
2022/08/27 00:27:19;;;;;;;6.80;6.17;;;24.50;99.90;;;;;;5031607;28;20998;-61
2022/08/27 00:29:45;;;;;;;5.60;5.10;;;24.50;99.90;;;;;;5031821;28;20536;-61
2022/08/27 00:34:40;;;;;;;3.93;3.70;;;24.50;99.90;;;;;;5030101;28;21007;-67
2022/08/27 00:37:07;;;;;;;4.17;3.87;;;24.40;99.90;;;;;;5024852;28;20437;-67
2022/08/27 00:39:36;;;;;;;4.53;3.33;;;24.30;99.90;;;;;;5031468;28;20477;-67
2022/08/27 00:42:03;;;;;;;5.17;3.23;;;24.30;99.90;;;;;;5031768;28;20954;-67
2022/08/27 00:44:30;;;;;;;3.90;3.60;;;24.30;99.90;;;;;;5031824;28;21029;-67
2022/08/27 00:47:01;;;;;;;3.60;3.30;;;24.30;99.90;;;;;;5032635;28;20445;-67
2022/08/27 00:49:34;;;;;;;3.10;2.90;;;24.30;99.90;;;;;;5035706;28;20503;-67
2022/08/27 00:52:05;;;;;;;3.40;3.10;;;24.30;99.90;;;;;;5035766;28;20499;-67
2022/08/27 00:54:32;;;;;;;3.40;3.10;;;24.30;99.90;;;;;;5035471;28;20485;-66
2022/08/27 00:57:03;;;;;;;3.53;3.33;;;24.40;99.90;;;;;;5035568;28;20532;-67
2022/08/27 00:59:31;;;;;;;3.93;3.17;;;24.40;99.90;;;;;;5035461;28;20473;-67
2022/08/27 01:04:47;;;;;;;3.93;3.17;;;24.30;99.90;;;;;;5035680;28;20917;-67
2022/08/27 01:07:14;;;;;;;3.00;2.80;;;24.30;99.90;;;;;;5035354;28;20877;-67
2022/08/27 01:09:42;;;;;;;4.77;3.70;;;24.30;99.90;;;;;;5035338;28;20479;-67
2022/08/27 01:12:11;;;;;;;4.30;3.87;;;24.30;99.90;;;;;;5035626;28;20528;-67
2022/08/27 01:14:39;;;;;;;5.03;3.83;;;24.30;99.90;;;;;;5034995;28;21013;-67
2022/08/27 01:17:09;;;;;;;7.40;5.20;;;24.30;99.90;;;;;;5035462;28;20953;-67
2022/08/27 01:19:41;;;;;;;5.40;5.03;;;24.20;99.90;;;;;;5035019;28;20495;-67
2022/08/27 01:22:15;;;;;;;10.07;5.30;;;24.10;99.90;;;;;;5035299;28;20451;-67
2022/08/27 01:24:46;;;;;;;6.00;5.47;;;24.10;99.90;;;;;;5035058;28;20476;-67
2022/08/27 01:27:19;;;;;;;5.70;4.60;;;24.00;99.90;;;;;;5035124;28;20472;-67
2022/08/27 01:29:46;;;;;;;4.77;4.37;;;24.10;99.90;;;;;;5034820;28;20538;-67
2022/08/27 01:32:15;;;;;;;4.73;4.10;;;24.10;99.90;;;;;;5034894;28;20470;-67
2022/08/27 01:34:42;;;;;;;5.10;4.20;;;24.00;99.90;;;;;;5034573;28;20903;-67
2022/08/27 01:37:11;;;;;;;4.27;3.83;;;24.00;99.90;;;;;;5035171;28;20477;-67
2022/08/27 01:39:40;;;;;;;4.80;4.40;;;23.90;99.90;;;;;;5034630;28;20852;-67
2022/08/27 01:42:12;;;;;;;5.40;4.80;;;23.90;99.90;;;;;;5034868;28;20528;-67
2022/08/27 01:44:44;;;;;;;5.43;3.63;;;23.90;99.90;;;;;;5034789;28;20465;-67
2022/08/27 01:47:11;;;;;;;4.40;3.90;;;23.90;99.90;;;;;;5034673;28;20444;-66
2022/08/27 01:49:38;;;;;;;6.50;3.20;;;24.00;99.90;;;;;;5034419;28;20448;-67
2022/08/27 01:52:05;;;;;;;2.87;2.50;;;23.90;99.90;;;;;;5034741;28;20452;-67
2022/08/27 01:54:33;;;;;;;2.80;2.60;;;23.90;99.90;;;;;;5034209;28;20517;-67
2022/08/27 01:57:00;;;;;;;3.83;2.90;;;23.90;99.90;;;;;;5034280;28;20520;-67
2022/08/27 01:59:28;;;;;;;3.03;2.53;;;23.90;99.90;;;;;;5033208;28;20564;-67
2022/08/27 02:01:56;;;;;;;2.93;2.63;;;23.80;99.90;;;;;;5034511;28;20480;-67
2022/08/27 02:04:23;;;;;;;3.80;2.43;;;23.80;99.90;;;;;;5034169;28;20544;-67
2022/08/27 02:06:50;;;;;;;2.60;2.40;;;23.80;99.90;;;;;;5034368;28;20532;-67
2022/08/27 02:09:17;;;;;;;6.30;2.27;;;23.80;99.90;;;;;;5034160;28;20532;-67
2022/08/27 02:11:44;;;;;;;4.00;2.20;;;23.70;99.90;;;;;;5034388;28;20535;-67
2022/08/27 02:14:11;;;;;;;6.73;2.17;;;23.70;99.90;;;;;;5033853;28;20527;-67
2022/08/27 02:16:40;;;;;;;2.80;2.07;;;23.70;99.90;;;;;;5034288;28;20456;-67
2022/08/27 02:19:07;;;;;;;5.43;1.90;;;23.80;99.90;;;;;;5034105;28;20833;-67
2022/08/27 02:21:35;;;;;;;3.87;2.30;;;23.90;99.90;;;;;;5034075;28;20477;-67
2022/08/27 02:24:02;;;;;;;4.30;2.47;;;23.80;99.90;;;;;;5033904;28;20465;-67
2022/08/27 02:26:29;;;;;;;3.57;3.13;;;23.90;99.90;;;;;;5034067;28;20532;-67
2022/08/27 02:28:56;;;;;;;5.53;3.33;;;23.90;99.90;;;;;;5033882;28;20540;-67
2022/08/27 02:31:23;;;;;;;3.97;3.40;;;24.00;99.90;;;;;;5033863;28;20452;-67
2022/08/27 02:33:51;;;;;;;5.43;3.60;;;24.00;99.90;;;;;;5033642;28;20489;-67
2022/08/27 02:36:18;;;;;;;5.40;3.83;;;23.90;99.90;;;;;;5033941;28;20528;-67
2022/08/27 02:38:45;;;;;;;2.83;2.60;;;23.90;99.90;;;;;;5033838;28;20457;-67
2022/08/27 02:41:13;;;;;;;3.43;3.00;;;23.90;99.90;;;;;;5033432;28;20520;-67
2022/08/27 02:43:40;;;;;;;3.13;2.50;;;23.80;99.90;;;;;;5033817;28;20608;-67
2022/08/27 02:46:07;;;;;;;2.30;2.10;;;23.80;99.90;;;;;;5033814;28;20469;-67
2022/08/27 02:48:36;;;;;;;2.80;2.20;;;23.80;99.90;;;;;;5033407;28;20477;-67
2022/08/27 02:51:04;;;;;;;3.47;2.50;;;23.80;99.90;;;;;;5033345;28;20447;-67
2022/08/27 02:53:32;;;;;;;2.87;2.67;;;23.80;99.90;;;;;;5033387;28;21000;-66
2022/08/27 02:55:58;;;;;;;2.80;2.60;;;23.70;99.90;;;;;;5033545;28;20893;-67
2022/08/27 02:58:25;;;;;;;4.40;3.57;;;23.70;99.90;;;;;;5033227;28;20525;-67
2022/08/27 03:00:52;;;;;;;4.53;4.13;;;23.70;99.90;;;;;;5033066;28;20881;-67
2022/08/27 03:03:19;;;;;;;5.33;3.27;;;23.60;99.90;;;;;;5033184;28;20909;-67
2022/08/27 03:05:46;;;;;;;8.13;4.33;;;23.60;99.90;;;;;;5033111;28;20949;-67
2022/08/27 03:08:15;;;;;;;5.27;4.00;;;23.60;99.90;;;;;;5033176;28;20449;-67
2022/08/27 03:10:42;;;;;;;6.23;4.03;;;23.60;99.90;;;;;;5032530;28;20464;-67
2022/08/27 03:13:08;;;;;;;6.60;4.73;;;23.50;99.90;;;;;;5033103;28;20583;-67
2022/08/27 03:15:35;;;;;;;4.60;4.20;;;23.50;99.90;;;;;;5032961;28;20523;-67
2022/08/27 03:18:20;;;;;;;6.63;4.00;;;23.50;99.90;;;;;;5032745;28;20442;-67
2022/08/27 03:20:48;;;;;;;5.70;4.50;;;23.60;99.90;;;;;;5032808;28;20472;-67
2022/08/27 03:23:18;;;;;;;4.60;2.90;;;23.70;99.90;;;;;;5032984;28;20461;-67
2022/08/27 03:25:46;;;;;;;5.17;4.70;;;23.70;99.90;;;;;;5032785;28;20957;-67
2022/08/27 03:28:15;;;;;;;11.50;4.63;;;23.70;99.90;;;;;;5032639;28;20477;-67
2022/08/27 03:30:44;;;;;;;9.47;8.27;;;23.70;99.90;;;;;;5032640;28;20973;-67
2022/08/27 03:33:12;;;;;;;7.23;6.53;;;23.70;99.90;;;;;;5032264;28;20481;-67
2022/08/27 03:35:39;;;;;;;11.90;7.80;;;23.60;99.90;;;;;;5032677;28;20485;-67
2022/08/27 03:38:06;;;;;;;7.73;6.93;;;23.60;99.90;;;;;;5032689;28;20879;-67
2022/08/27 03:40:34;;;;;;;10.13;7.20;;;23.60;99.90;;;;;;5032394;28;20488;-67
2022/08/27 03:43:01;;;;;;;8.37;6.83;;;23.60;99.90;;;;;;5032406;28;20548;-67
2022/08/27 03:45:28;;;;;;;10.80;7.90;;;23.70;99.90;;;;;;5032627;28;20535;-67
2022/08/27 03:47:55;;;;;;;8.03;7.23;;;23.70;99.90;;;;;;5032019;28;21040;-67
2022/08/27 03:50:22;;;;;;;9.03;7.70;;;23.70;99.90;;;;;;5032347;28;20524;-67
2022/08/27 03:52:49;;;;;;;8.93;8.03;;;23.70;99.90;;;;;;5032357;28;20467;-67
2022/08/27 03:55:16;;;;;;;8.40;7.23;;;23.70;99.90;;;;;;5032247;28;20571;-67
2022/08/27 03:57:44;;;;;;;12.20;7.53;;;23.70;99.90;;;;;;5032148;28;21022;-67
2022/08/27 04:00:13;;;;;;;8.67;7.43;;;23.70;99.90;;;;;;5031996;28;20452;-67
2022/08/27 04:02:41;;;;;;;7.00;6.40;;;23.70;99.90;;;;;;5032152;28;20560;-67
2022/08/27 04:05:10;;;;;;;7.97;6.90;;;23.70;99.90;;;;;;5032365;28;20472;-67
2022/08/27 04:07:38;;;;;;;7.10;6.27;;;23.70;99.90;;;;;;5031958;28;21153;-67
2022/08/27 04:10:06;;;;;;;7.67;6.97;;;23.70;99.90;;;;;;5032092;28;20447;-67
2022/08/27 04:12:33;;;;;;;7.00;6.33;;;23.70;99.90;;;;;;5032142;28;20469;-67
2022/08/27 04:15:01;;;;;;;6.63;6.07;;;23.70;99.90;;;;;;5031879;28;20578;-67
2022/08/27 04:17:28;;;;;;;7.73;6.90;;;23.70;99.90;;;;;;5031983;28;20473;-67
2022/08/27 04:19:55;;;;;;;6.73;5.90;;;23.70;99.90;;;;;;5031418;28;20503;-67
2022/08/27 04:22:22;;;;;;;6.13;5.33;;;23.70;99.90;;;;;;5030960;28;20532;-67
2022/08/27 04:24:50;;;;;;;5.97;4.87;;;23.70;99.90;;;;;;5031936;28;20874;-67
2022/08/27 04:27:16;;;;;;;5.30;4.53;;;23.70;99.90;;;;;;5031566;28;20807;-67
2022/08/27 04:29:43;;;;;;;6.07;4.97;;;23.70;99.90;;;;;;5031597;28;20445;-67
2022/08/27 04:32:12;;;;;;;5.53;5.13;;;23.60;99.90;;;;;;5031702;28;20493;-67
2022/08/27 04:34:39;;;;;;;7.00;4.20;;;23.60;99.90;;;;;;5031710;28;20576;-67
2022/08/27 04:37:06;;;;;;;6.33;4.47;;;23.60;99.90;;;;;;5031633;28;20481;-67
2022/08/27 04:39:33;;;;;;;7.03;4.63;;;23.60;99.90;;;;;;5031432;28;21432;-67
2022/08/27 04:42:01;;;;;;;4.57;4.17;;;23.60;99.90;;;;;;5031738;28;20487;-67
2022/08/27 04:44:29;;;;;;;6.23;4.33;;;23.60;99.90;;;;;;5031578;28;20476;-67
2022/08/27 04:46:58;;;;;;;6.03;5.10;;;23.60;99.90;;;;;;5016047;28;20469;-67
2022/08/27 04:49:28;;;;;;;5.97;4.10;;;23.60;99.90;;;;;;5031606;28;20445;-67
2022/08/27 04:51:55;;;;;;;5.87;3.90;;;23.60;99.90;;;;;;5031816;28;20488;-67
2022/08/27 04:54:24;;;;;;;4.70;3.90;;;23.60;99.90;;;;;;5031248;28;20567;-67
2022/08/27 04:56:51;;;;;;;4.73;4.23;;;23.60;99.90;;;;;;5031773;28;20576;-67
2022/08/27 04:59:18;;;;;;;4.50;4.10;;;23.60;99.90;;;;;;5031298;28;20484;-67
2022/08/27 05:01:46;;;;;;;6.10;4.03;;;23.60;99.90;;;;;;5031570;28;20492;-67
2022/08/27 05:04:15;;;;;;;3.77;3.47;;;23.50;99.90;;;;;;5031101;28;20519;-67
2022/08/27 05:06:44;;;;;;;5.40;3.63;;;23.50;99.90;;;;;;5031343;28;20469;-67
2022/08/27 05:09:13;;;;;;;5.63;3.57;;;23.50;99.90;;;;;;5031352;28;20449;-67
2022/08/27 05:11:40;;;;;;;21.23;5.13;;;23.60;99.90;;;;;;5031573;28;20473;-67
2022/08/27 05:14:10;;;;;;;4.00;3.40;;;23.60;99.90;;;;;;5031016;28;20527;-67
2022/08/27 05:16:38;;;;;;;3.77;3.07;;;23.60;99.90;;;;;;5031553;28;20542;-67
2022/08/27 05:19:07;;;;;;;10.93;3.17;;;23.60;99.90;;;;;;5031287;28;20486;-67
2022/08/27 05:21:37;;;;;;;7.00;2.73;;;23.60;99.90;;;;;;5031265;28;20531;-67
2022/08/27 05:24:07;;;;;;;4.50;3.47;;;23.60;99.90;;;;;;5031171;28;20526;-67
2022/08/27 05:26:35;;;;;;;7.47;3.10;;;23.60;99.90;;;;;;5031583;28;20472;-67
2022/08/27 05:29:03;;;;;;;3.33;2.87;;;23.60;99.90;;;;;;5031178;28;20455;-67
2022/08/27 05:31:30;;;;;;;3.10;2.80;;;23.60;99.90;;;;;;5031389;28;20472;-67
2022/08/27 05:33:58;;;;;;;2.70;2.30;;;23.60;99.90;;;;;;5033709;28;20582;-67
2022/08/27 05:36:28;;;;;;;3.70;2.57;;;23.60;99.90;;;;;;5035016;28;20487;-67
2022/08/27 05:38:56;;;;;;;3.00;2.80;;;23.60;99.90;;;;;;5034775;28;20540;-67
2022/08/27 05:41:28;;;;;;;3.77;2.53;;;23.60;99.90;;;;;;5034750;28;21006;-67
2022/08/27 05:43:57;;;;;;;3.10;2.60;;;23.60;99.90;;;;;;5034591;28;20472;-67
2022/08/27 05:46:26;;;;;;;2.33;2.23;;;23.60;99.90;;;;;;5034764;28;20449;-67
2022/08/27 05:48:56;;;;;;;4.93;2.93;;;23.60;99.90;;;;;;5034553;28;20444;-67
2022/08/27 05:51:27;;;;;;;3.97;3.00;;;23.60;99.90;;;;;;5034352;28;20449;-67
2022/08/27 05:53:56;;;;;;;4.80;2.87;;;23.60;99.90;;;;;;5034567;28;20552;-67
2022/08/27 05:56:27;;;;;;;5.10;2.73;;;23.50;99.90;;;;;;5034570;28;20519;-67
2022/08/27 06:01:42;;;;;;;6.50;3.20;;;23.50;99.90;;;;;;5034056;28;20527;-65
2022/08/27 06:04:09;;;;;;;4.73;3.30;;;23.50;99.90;;;;;;5030440;28;20965;-64
2022/08/27 06:06:38;;;;;;;3.97;3.57;;;23.50;99.90;;;;;;5034428;28;20447;-66
2022/08/27 06:09:06;;;;;;;3.63;3.10;;;23.50;99.90;;;;;;5033669;28;20468;-66
2022/08/27 06:11:34;;;;;;;5.80;3.70;;;23.60;99.90;;;;;;5034253;28;20536;-66
2022/08/27 06:14:02;;;;;;;5.17;3.70;;;23.60;99.90;;;;;;5034099;28;20473;-65
2022/08/27 06:16:29;;;;;;;6.57;4.20;;;23.60;99.90;;;;;;5034270;28;20513;-68
2022/08/27 06:18:57;;;;;;;5.27;3.10;;;23.60;99.90;;;;;;5033907;28;20489;-66
2022/08/27 06:21:24;;;;;;;5.00;3.70;;;23.60;99.90;;;;;;5014307;28;20446;-67
2022/08/27 06:23:52;;;;;;;3.23;2.60;;;23.60;99.90;;;;;;5014314;28;21043;-67
2022/08/27 06:26:20;;;;;;;3.60;3.20;;;23.60;99.90;;;;;;5014242;28;20492;-67
2022/08/27 06:28:49;;;;;;;7.70;2.73;;;23.60;99.90;;;;;;5014027;28;20537;-62
2022/08/27 06:31:18;;;;;;;4.07;2.93;;;23.60;99.90;;;;;;5033482;28;20457;-67
2022/08/27 06:33:47;;;;;;;4.20;2.67;;;23.60;99.90;;;;;;5034637;28;20844;-66
2022/08/27 06:36:16;;;;;;;2.60;2.40;;;23.60;99.90;;;;;;5034037;28;20508;-66
2022/08/27 06:38:43;;;;;;;6.67;3.57;;;23.60;99.90;;;;;;5033991;28;20529;-65
2022/08/27 06:41:13;;;;;;;3.13;2.80;;;23.60;99.90;;;;;;5033564;28;20520;-65
2022/08/27 06:43:42;;;;;;;4.70;3.13;;;23.60;99.90;;;;;;5033862;28;20477;-65
2022/08/27 06:46:13;;;;;;;5.03;3.30;;;23.60;99.90;;;;;;5033554;28;21162;-64
2022/08/27 06:48:43;;;;;;;2.90;2.70;;;23.60;99.90;;;;;;5033713;28;20441;-65
2022/08/27 06:51:12;;;;;;;2.50;1.93;;;23.60;99.90;;;;;;5033478;28;20449;-64
2022/08/27 06:53:39;;;;;;;5.50;2.60;;;23.60;99.90;;;;;;5033242;28;20925;-63
2022/08/27 06:56:07;;;;;;;2.73;2.53;;;23.70;99.90;;;;;;5033504;28;20517;-66
2022/08/27 06:58:34;;;;;;;6.20;3.50;;;23.70;99.90;;;;;;5033693;28;20496;-66
2022/08/27 07:01:03;;;;;;;5.33;3.33;;;23.60;99.90;;;;;;5033951;28;20457;-64
2022/08/27 07:03:31;;;;;;;2.10;2.00;;;23.60;99.90;;;;;;5034573;28;20871;-64
2022/08/27 07:06:04;;;;;;;7.20;3.77;;;23.60;99.90;;;;;;5035008;28;20448;-65
2022/08/27 07:08:31;;;;;;;3.20;2.90;;;23.60;99.90;;;;;;5034980;28;20441;-66
2022/08/27 07:10:59;;;;;;;3.10;2.90;;;23.60;99.90;;;;;;5035414;28;20487;-67
2022/08/27 07:13:26;;;;;;;3.10;2.80;;;23.60;99.90;;;;;;5034958;28;20502;-64
2022/08/27 07:15:53;;;;;;;2.80;2.33;;;23.60;99.90;;;;;;5035238;28;20481;-65
2022/08/27 07:18:21;;;;;;;3.23;3.00;;;23.60;99.90;;;;;;5035600;28;20491;-67
2022/08/27 07:20:51;;;;;;;6.60;2.77;;;23.60;99.90;;;;;;5034637;28;20862;-66
2022/08/27 07:23:18;;;;;;;2.87;2.50;;;23.70;99.90;;;;;;5034982;28;20903;-65
2022/08/27 07:25:45;;;;;;;2.43;2.23;;;23.70;99.90;;;;;;5034763;28;20524;-65
2022/08/27 07:28:12;;;;;;;4.50;2.47;;;23.70;99.90;;;;;;5034803;28;20477;-61
2022/08/27 07:30:39;;;;;;;4.00;2.90;;;23.70;99.90;;;;;;5033502;28;20449;-66
2022/08/27 07:33:06;;;;;;;2.80;2.60;;;23.70;99.90;;;;;;5035055;28;20500;-67
2022/08/27 07:35:33;;;;;;;3.20;2.80;;;23.70;99.90;;;;;;5035041;28;20513;-67
2022/08/27 07:38:01;;;;;;;6.63;3.37;;;23.70;99.90;;;;;;5034441;28;20445;-61
2022/08/27 07:40:28;;;;;;;6.67;2.90;;;23.70;99.90;;;;;;5033887;28;20865;-62
2022/08/27 07:45:46;;;;;;;2.77;2.50;;;23.70;99.90;;;;;;5034668;28;20517;-67
2022/08/27 07:48:14;;;;;;;3.90;2.53;;;23.70;99.90;;;;;;5034025;28;20495;-63
2022/08/27 07:50:42;;;;;;;2.97;2.77;;;23.70;99.90;;;;;;5033411;28;20967;-62
2022/08/27 07:53:10;;;;;;;2.70;2.50;;;23.70;99.90;;;;;;5033244;28;20883;-62
2022/08/27 07:55:37;;;;;;;5.50;3.20;;;23.70;99.90;;;;;;5033069;28;20516;-62
2022/08/27 07:58:05;;;;;;;4.50;2.97;;;23.70;99.90;;;;;;5032750;28;20532;-62
2022/08/27 08:00:33;;;;;;;3.37;3.07;;;23.70;99.90;;;;;;5033238;28;20968;-63
2022/08/27 08:03:01;;;;;;;3.27;2.97;;;23.70;99.90;;;;;;5033030;28;20497;-63
2022/08/27 08:05:28;;;;;;;3.67;3.47;;;23.70;99.90;;;;;;5033443;28;20520;-64
2022/08/27 08:07:55;;;;;;;4.20;3.00;;;23.70;99.90;;;;;;5033845;28;20541;-64
2022/08/27 08:10:23;;;;;;;3.13;2.83;;;23.80;99.90;;;;;;5032992;28;20528;-64
2022/08/27 08:12:51;;;;;;;2.73;2.53;;;23.80;99.90;;;;;;5033452;28;20500;-64
2022/08/27 08:15:19;;;;;;;5.10;3.20;;;23.80;99.90;;;;;;5032986;28;20571;-64
2022/08/27 08:17:47;;;;;;;3.90;3.60;;;23.80;99.90;;;;;;5033137;28;20438;-65
2022/08/27 08:20:14;;;;;;;4.60;3.30;;;23.80;99.90;;;;;;5032817;28;20455;-64
2022/08/27 08:22:42;;;;;;;3.43;3.17;;;23.80;99.90;;;;;;5033087;28;20477;-65
2022/08/27 08:25:10;;;;;;;3.53;2.73;;;23.80;99.90;;;;;;5033393;28;20449;-65
2022/08/27 08:27:38;;;;;;;3.03;2.83;;;23.80;99.90;;;;;;5033694;28;20445;-65
2022/08/27 08:30:05;;;;;;;4.83;3.03;;;23.80;99.90;;;;;;5033378;28;20535;-65
2022/08/27 08:32:32;;;;;;;2.83;2.63;;;23.80;99.90;;;;;;5032855;28;20489;-66
2022/08/27 08:34:59;;;;;;;3.00;2.70;;;23.80;99.90;;;;;;5032967;28;21016;-64
2022/08/27 08:37:27;;;;;;;2.70;2.60;;;23.90;99.90;;;;;;5033072;28;20506;-63
2022/08/27 08:39:54;;;;;;;3.00;2.70;;;23.90;99.90;;;;;;5032644;28;21002;-63
2022/08/27 08:42:30;;;;;;;2.70;2.50;;;23.80;99.90;;;;;;5032599;28;20480;-64
2022/08/27 08:45:01;;;;;;;3.17;2.97;;;23.90;99.90;;;;;;5032473;28;20483;-64
2022/08/27 08:47:31;;;;;;;6.93;3.10;;;23.90;99.90;;;;;;5032611;28;20456;-67
2022/08/27 08:50:07;;;;;;;5.03;3.57;;;23.90;99.90;;;;;;5032798;28;20528;-66
2022/08/27 08:52:46;;;;;;;5.47;3.37;;;23.90;99.90;;;;;;5032743;28;20545;-65
2022/08/27 08:55:27;;;;;;;3.17;2.97;;;23.90;99.90;;;;;;5032622;28;20445;-65
2022/08/27 08:58:04;;;;;;;4.47;2.80;;;23.90;99.90;;;;;;5032764;28;20477;-65
2022/08/27 09:00:33;;;;;;;3.53;3.23;;;23.90;99.90;;;;;;5032809;28;20457;-65
2022/08/27 09:03:00;;;;;;;3.93;3.30;;;23.90;99.90;;;;;;5032824;28;20903;-65
2022/08/27 09:05:26;;;;;;;3.53;3.23;;;23.90;99.90;;;;;;5032426;28;20449;-64
2022/08/27 09:08:02;;;;;;;3.77;3.50;;;23.90;99.90;;;;;;5033606;28;20491;-65
2022/08/27 09:10:38;;;;;;;4.37;2.77;;;23.90;99.90;;;;;;5036693;28;20452;-65
2022/08/27 09:13:11;;;;;;;4.20;3.37;;;23.90;99.90;;;;;;5036646;28;20550;-65
2022/08/27 09:15:40;;;;;;;3.93;3.53;;;23.90;99.90;;;;;;5036919;28;20846;-66
2022/08/27 09:18:09;;;;;;;3.63;3.33;;;23.90;99.90;;;;;;5036856;28;20503;-66
2022/08/27 09:20:37;;;;;;;5.53;3.80;;;23.90;99.90;;;;;;5036417;28;20476;-66
2022/08/27 09:23:14;;;;;;;4.57;3.20;;;23.90;99.90;;;;;;5036377;28;21032;-65
2022/08/27 09:25:43;;;;;;;4.00;3.10;;;24.00;99.90;;;;;;5036176;28;20472;-65
2022/08/27 09:31:00;;;;;;;3.53;3.17;;;24.00;99.90;;;;;;5035185;28;20429;-65
2022/08/27 09:33:27;;;;;;;4.13;3.57;;;24.00;99.90;;;;;;5035732;28;20511;-65
2022/08/27 09:35:54;;;;;;;3.10;2.90;;;24.00;99.90;;;;;;5035667;28;20558;-64
2022/08/27 09:38:26;;;;;;;3.17;2.87;;;24.10;99.90;;;;;;5035477;28;20528;-65
2022/08/27 09:40:56;;;;;;;2.73;2.60;;;24.10;99.90;;;;;;5036022;28;20449;-65
2022/08/27 09:43:27;;;;;;;4.53;3.97;;;24.10;99.90;;;;;;5035434;28;20497;-66
2022/08/27 09:45:58;;;;;;;5.50;2.97;;;24.10;99.90;;;;;;5034672;28;20456;-62
2022/08/27 17:55:42;;;;;;;2.90;2.67;;;24.40;92.20;;;;;;5089152;27;21054;-60
2022/08/27 17:58:09;;;;;;;2.63;2.43;;;24.40;92.50;;;;;;5094646;28;20448;-58
2022/08/27 18:00:38;;;;;;;2.10;1.83;;;24.40;92.40;;;;;;5109261;28;20438;-59
2022/08/27 18:03:11;;;;;;;2.60;2.40;;;24.50;92.20;;;;;;5105229;28;20458;-60
2022/08/27 18:05:38;;;;;;;2.30;2.17;;;24.50;92.20;;;;;;5089415;28;20438;-59
2022/08/27 18:08:05;;;;;;;2.67;2.47;;;24.50;92.00;;;;;;5084199;28;20527;-58
2022/08/27 18:10:32;;;;;;;3.53;2.17;;;24.60;91.70;;;;;;5068708;28;20439;-60
2022/08/27 18:13:01;;;;;;;2.03;1.93;;;24.60;91.60;;;;;;5068779;28;20538;-58
2022/08/27 18:15:30;;;;;;;3.37;2.80;;;24.70;91.60;;;;;;5068641;28;20490;-53
2022/08/27 18:17:58;;;;;;;2.20;1.90;;;24.70;91.50;;;;;;5074489;28;20442;-57
2022/08/27 18:20:28;;;;;;;2.23;2.00;;;24.80;91.60;;;;;;5088752;28;20809;-61
2022/08/27 18:22:56;;;;;;;2.10;2.00;;;24.80;91.30;;;;;;5088830;28;21037;-54
2022/08/27 18:25:25;;;;;;;2.50;2.30;;;24.80;91.10;;;;;;5088848;28;20443;-54
2022/08/27 18:27:55;;;;;;;2.20;2.00;;;24.90;90.90;;;;;;5083463;28;20443;-55
2022/08/27 18:30:25;;;;;;;2.37;2.17;;;24.90;90.70;;;;;;5068305;28;20448;-59
2022/08/27 18:35:19;;;;;;;3.27;2.97;;;24.90;90.40;;;;;;5040197;23;20560;-64
2022/08/27 18:37:47;;;;;;;2.87;2.67;;;25.00;90.30;;;;;;5015049;28;20464;-63
2022/08/27 18:40:17;;;;;;;3.90;3.70;;;25.00;90.10;;;;;;5009464;28;20467;-63
2022/08/27 18:42:45;;;;;;;2.60;2.43;;;25.00;90.00;;;;;;5010110;28;20807;-63
2022/08/27 18:45:14;;;;;;;3.30;2.40;;;25.00;90.00;;;;;;5010098;28;20462;-64
2022/08/27 18:47:43;;;;;;;3.50;3.20;;;25.00;89.40;;;;;;5011351;28;20442;-64
2022/08/27 18:50:13;;;;;;;3.00;2.70;;;25.00;88.90;;;;;;5010757;28;20956;-64
2022/08/27 18:52:42;;;;;;;2.70;2.60;;;25.00;88.40;;;;;;5010775;28;20447;-63
2022/08/27 18:55:14;;;;;;;3.47;3.20;;;25.00;88.20;;;;;;5010675;28;20925;-64
2022/08/27 18:57:43;;;;;;;3.53;3.20;;;25.10;88.00;;;;;;5009681;28;20478;-63
2022/08/27 19:00:13;;;;;;;2.70;2.50;;;25.10;87.60;;;;;;5014247;28;20485;-62
2022/08/27 19:02:42;;;;;;;5.60;2.90;;;25.10;87.10;;;;;;5010702;28;20466;-65
2022/08/27 19:05:11;;;;;;;2.40;2.23;;;25.10;86.70;;;;;;5007740;28;20886;-65
2022/08/27 19:07:38;;;;;;;2.57;2.37;;;25.10;86.70;;;;;;4996924;28;20451;-61
2022/08/27 19:10:07;;;;;;;2.60;2.37;;;25.10;86.20;;;;;;4996359;28;20496;-63
2022/08/27 19:12:34;;;;;;;4.07;2.33;;;25.10;86.00;;;;;;4996144;28;20479;-63
2022/08/27 19:15:01;;;;;;;2.30;2.20;;;25.10;85.70;;;;;;4995875;28;20490;-63
2022/08/27 19:17:32;;;;;;;2.03;1.93;;;25.10;85.50;;;;;;4995761;28;20955;-63
2022/08/27 19:20:02;;;;;;;2.07;1.97;;;25.10;85.50;;;;;;4995943;28;20932;-61
2022/08/27 19:22:30;;;;;;;2.67;2.47;;;25.10;85.50;;;;;;4995966;28;20498;-63
2022/08/27 19:24:58;;;;;;;1.87;1.77;;;25.10;85.00;;;;;;4996141;28;20554;-63
2022/08/27 19:27:27;;;;;;;2.17;2.07;;;25.10;84.70;;;;;;4996115;28;20849;-62
2022/08/27 19:29:55;;;;;;;2.17;2.03;;;25.10;84.70;;;;;;4995747;28;20820;-63
2022/08/27 19:32:22;;;;;;;2.07;1.97;;;25.20;84.60;;;;;;4995744;28;20454;-62
2022/08/27 19:34:49;;;;;;;2.03;1.93;;;25.20;84.70;;;;;;4995302;28;20514;-61
2022/08/27 19:37:22;;;;;;;2.37;2.20;;;25.20;84.70;;;;;;4995559;28;20538;-63
2022/08/27 19:39:49;;;;;;;2.47;2.27;;;25.20;84.50;;;;;;4995745;28;20474;-63
2022/08/27 19:42:17;;;;;;;1.93;1.70;;;25.20;84.40;;;;;;4996331;28;20502;-64
2022/08/27 19:44:44;;;;;;;1.87;1.70;;;25.20;84.30;;;;;;4996442;28;20539;-62
2022/08/27 19:47:13;;;;;;;2.37;1.60;;;25.20;84.40;;;;;;4996899;28;20847;-62
2022/08/27 19:49:43;;;;;;;1.90;1.80;;;25.20;84.40;;;;;;4995594;28;20856;-63
2022/08/27 19:52:11;;;;;;;3.10;1.80;;;25.20;84.30;;;;;;4996273;28;20781;-63
2022/08/27 19:54:39;;;;;;;2.77;2.57;;;25.20;84.20;;;;;;4995400;28;20479;-61
2022/08/27 19:57:06;;;;;;;4.50;2.83;;;25.20;84.20;;;;;;4995949;28;20474;-61
2022/08/27 19:59:34;;;;;;;2.63;2.43;;;25.20;84.00;;;;;;4995336;28;20871;-61
2022/08/27 20:02:01;;;;;;;4.13;2.60;;;25.20;84.00;;;;;;4994797;28;20938;-61
2022/08/27 20:04:31;;;;;;;3.80;1.40;;;25.20;83.80;;;;;;4995983;28;20466;-61
2022/08/27 20:06:58;;;;;;;2.00;1.67;;;25.20;83.80;;;;;;4995858;28;20450;-65
2022/08/27 20:09:25;;;;;;;2.00;1.90;;;25.20;83.80;;;;;;4995005;28;20443;-64
2022/08/27 20:11:53;;;;;;;2.13;2.03;;;25.20;83.70;;;;;;4994904;28;20861;-63
2022/08/27 20:14:21;;;;;;;2.07;1.90;;;25.30;84.30;;;;;;4994694;28;20486;-63
2022/08/27 20:16:48;;;;;;;3.70;1.90;;;25.20;83.70;;;;;;4993720;28;20444;-64
2022/08/27 20:19:17;;;;;;;2.63;2.40;;;25.20;84.00;;;;;;4995842;28;20235;-59
2022/08/27 20:21:44;;;;;;;3.50;1.90;;;25.20;84.40;;;;;;4996848;28;20454;-64
2022/08/27 20:24:11;;;;;;;2.07;1.87;;;25.20;84.00;;;;;;4997573;28;20467;-63
2022/08/27 20:26:38;;;;;;;1.90;1.80;;;25.20;83.60;;;;;;4997867;28;20458;-64
2022/08/27 20:29:07;;;;;;;3.33;2.33;;;25.20;83.50;;;;;;4997530;28;20452;-58
2022/08/27 20:31:35;;;;;;;2.63;1.90;;;25.20;83.50;;;;;;4996190;28;20967;-61
2022/08/27 20:34:02;;;;;;;3.67;2.03;;;25.20;83.50;;;;;;4996050;28;20511;-62
2022/08/27 20:36:31;;;;;;;2.40;1.47;;;25.20;83.70;;;;;;4995231;28;20451;-63
2022/08/27 20:38:59;;;;;;;1.47;1.33;;;25.20;83.60;;;;;;4995046;28;20549;-62
2022/08/27 20:41:27;;;;;;;2.07;1.97;;;25.20;83.70;;;;;;4995387;28;20447;-62
2022/08/27 20:43:54;;;;;;;2.20;2.00;;;25.20;83.80;;;;;;4995702;28;20526;-61
2022/08/27 20:46:24;;;;;;;3.87;1.90;;;25.20;83.90;;;;;;4994297;28;21041;-63
2022/08/27 20:48:51;;;;;;;2.27;1.67;;;25.10;83.70;;;;;;4995611;28;20451;-66
2022/08/27 20:51:19;;;;;;;3.53;2.23;;;25.20;83.70;;;;;;4993519;28;20530;-65
2022/08/27 20:53:45;;;;;;;4.00;3.00;;;25.20;83.60;;;;;;4993538;28;21082;-64
2022/08/27 20:56:13;;;;;;;1.60;1.50;;;25.20;83.50;;;;;;4993198;28;20987;-63
2022/08/27 21:01:25;;;;;;;2.40;2.20;;;25.10;83.60;;;;;;4993116;28;20426;-63
2022/08/27 21:03:53;;;;;;;1.87;1.77;;;25.10;83.90;;;;;;4993133;28;20915;-64
2022/08/27 21:06:20;;;;;;;2.13;1.87;;;25.00;83.90;;;;;;4992823;28;20450;-64
2022/08/27 21:08:47;;;;;;;2.20;1.53;;;25.00;84.00;;;;;;4993058;28;20534;-64
2022/08/27 21:11:15;;;;;;;2.27;1.80;;;25.00;84.10;;;;;;4992971;28;20531;-64
2022/08/27 21:13:43;;;;;;;2.27;2.00;;;25.00;84.30;;;;;;4992850;28;20554;-64
2022/08/27 21:16:10;;;;;;;3.40;2.30;;;25.00;84.20;;;;;;4992955;28;20517;-64